createdAt,value
2024-01-18T00:01:50.824Z,99479.88
2024-01-18T00:04:18.653Z,99474.84
2024-01-18T00:06:46.680Z,99469.91
2024-01-18T00:09:14.888Z,99474.50
2024-01-18T00:11:42.727Z,99487.06
2024-01-18T00:14:10.708Z,99487.22
2024-01-18T00:16:41.251Z,99473.28
2024-01-18T00:19:12.902Z,99494.03
2024-01-18T00:21:41.112Z,99496.78
2024-01-18T00:24:12.035Z,99507.72
2024-01-18T00:26:39.850Z,99484.31
2024-01-18T00:29:09.763Z,99507.72
2024-01-18T00:31:38.893Z,99508.91
2024-01-18T00:34:06.714Z,99525.34
2024-01-18T00:36:34.556Z,99524.63
2024-01-18T00:39:04.841Z,99525.69
2024-01-18T00:41:33.558Z,99535.53
2024-01-18T00:44:01.313Z,99539.75
2024-01-18T00:46:29.119Z,99536.16
2024-01-18T00:48:58.313Z,99550.31
2024-01-18T00:51:26.215Z,99546.09
2024-01-18T00:53:54.254Z,99548.72
2024-01-18T00:56:22.047Z,99551.13
2024-01-18T00:58:50.960Z,99558.81
2024-01-18T01:01:19.056Z,99561.59
2024-01-18T01:03:46.869Z,99554.25
2024-01-18T01:06:16.110Z,99550.78
2024-01-18T01:08:43.865Z,99541.75
2024-01-18T01:11:11.657Z,99563.25
2024-01-18T01:13:39.423Z,99563.25
2024-01-18T01:16:07.961Z,99564.34
2024-01-18T01:18:35.866Z,99567.09
2024-01-18T01:21:03.726Z,99568.53
2024-01-18T01:23:33.132Z,99575.59
2024-01-18T01:26:02.489Z,99565.50
2024-01-18T01:28:30.173Z,99567.31
2024-01-18T01:30:57.953Z,99577.25
2024-01-18T01:33:25.874Z,99576.91
2024-01-18T01:35:54.065Z,99584.97
2024-01-18T01:38:21.885Z,99582.31
2024-01-18T01:40:51.886Z,99579.78
2024-01-18T01:43:19.726Z,99583.38
2024-01-18T01:45:47.519Z,99583.38
2024-01-18T01:48:17.150Z,99590.56
2024-01-18T01:50:45.035Z,99588.03
2024-01-18T01:53:14.574Z,99593.66
2024-01-18T01:55:45.058Z,99588.09
2024-01-18T01:58:16.597Z,99591.47
2024-01-18T02:00:45.465Z,99602.13
2024-01-18T02:03:15.608Z,99599.75
2024-01-18T02:05:44.190Z,99603.34
2024-01-18T02:08:12.498Z,99606.06
2024-01-18T02:10:40.704Z,99603.53
2024-01-18T02:13:09.197Z,99606.31
2024-01-18T02:15:38.506Z,99614.44
2024-01-18T02:18:06.916Z,99610.47
2024-01-18T02:20:34.812Z,99625.25
2024-01-18T02:23:08.403Z,99625.00
2024-01-18T02:25:37.865Z,99624.78
2024-01-18T02:28:08.037Z,99629.13
2024-01-18T02:30:35.836Z,99625.50
2024-01-18T02:33:03.890Z,99618.16
2024-01-18T02:35:31.813Z,99618.03
2024-01-18T02:37:59.680Z,99623.94
2024-01-18T02:40:27.540Z,99624.03
2024-01-18T02:42:56.850Z,99624.03
2024-01-18T02:45:26.506Z,99619.50
2024-01-18T02:47:54.367Z,99617.19
2024-01-18T02:50:22.262Z,99618.78
2024-01-18T02:52:50.035Z,99623.22
2024-01-18T02:55:18.994Z,99630.50
2024-01-18T02:57:46.954Z,99628.72
2024-01-18T03:00:19.265Z,99605.25
2024-01-18T03:02:47.253Z,99625.44
2024-01-18T03:05:15.136Z,99616.53
2024-01-18T03:07:42.914Z,99634.66
2024-01-18T03:10:11.040Z,99628.63
2024-01-18T03:12:39.411Z,99627.19
2024-01-18T03:15:11.578Z,99627.19
2024-01-18T03:17:40.842Z,99616.00
2024-01-18T03:20:12.676Z,99623.38
2024-01-18T03:22:41.931Z,99639.09
2024-01-18T03:25:10.197Z,99643.50
2024-01-18T03:27:38.017Z,99654.91
2024-01-18T03:30:11.221Z,99662.31
2024-01-18T03:32:40.345Z,99655.44
2024-01-18T03:35:09.653Z,99658.09
2024-01-18T03:37:37.667Z,99646.94
2024-01-18T03:40:06.517Z,99642.28
2024-01-18T03:42:34.344Z,99643.00
2024-01-18T03:45:02.352Z,99649.22
2024-01-18T03:47:30.142Z,99645.41
2024-01-18T03:49:59.279Z,99658.59
2024-01-18T03:52:27.052Z,99647.19
2024-01-18T03:54:54.969Z,99648.28
2024-01-18T03:57:22.673Z,99644.81
2024-01-18T03:59:50.577Z,99650.91
2024-01-18T04:02:18.273Z,99645.66
2024-01-18T04:04:45.944Z,99641.75
2024-01-18T04:07:16.284Z,99633.34
2024-01-18T04:09:44.008Z,99624.69
2024-01-18T04:12:11.832Z,99652.41
2024-01-18T04:14:41.937Z,99644.59
2024-01-18T04:17:11.251Z,99640.31
2024-01-18T04:19:39.070Z,99657.16
2024-01-18T04:22:06.881Z,99646.00
2024-01-18T04:24:36.659Z,99647.78
2024-01-18T04:27:04.733Z,99618.53
2024-01-18T04:29:32.960Z,99641.16
2024-01-18T04:32:00.646Z,99648.09
2024-01-18T04:34:28.411Z,99658.78
2024-01-18T04:36:56.250Z,99665.00
2024-01-18T04:39:23.975Z,99672.06
2024-01-18T04:41:53.165Z,99672.06
2024-01-18T04:44:20.900Z,99676.69
2024-01-18T04:46:48.651Z,99676.69
2024-01-18T04:49:16.956Z,99677.97
2024-01-18T04:51:44.779Z,99688.00
2024-01-18T04:54:12.666Z,99694.63
2024-01-18T04:56:40.401Z,99696.53
2024-01-18T04:59:10.665Z,99689.88
2024-01-18T05:01:41.006Z,99691.69
2024-01-18T05:04:09.186Z,99694.03
2024-01-18T05:06:37.349Z,99688.34
2024-01-18T05:09:05.250Z,99692.53
2024-01-18T05:11:32.974Z,99702.22
2024-01-18T05:14:00.710Z,99704.25
2024-01-18T05:16:31.199Z,99712.16
2024-01-18T05:18:58.991Z,99714.88
2024-01-18T05:21:26.754Z,99710.47
2024-01-18T05:23:55.395Z,99711.41
2024-01-18T05:26:23.127Z,99714.88
2024-01-18T05:28:50.803Z,99723.75
2024-01-18T05:31:18.883Z,99720.69
2024-01-18T05:33:48.043Z,99729.25
2024-01-18T05:36:15.832Z,99730.09
2024-01-18T05:38:43.608Z,99722.47
2024-01-18T05:41:11.258Z,99730.28
2024-01-18T05:43:39.056Z,99736.41
2024-01-18T05:46:09.481Z,99747.69
2024-01-18T05:48:37.345Z,99735.34
2024-01-18T05:51:06.963Z,99748.44
2024-01-18T05:53:34.944Z,99751.88
2024-01-18T05:56:02.695Z,99742.19
2024-01-18T05:58:32.719Z,99740.41
2024-01-18T06:01:03.104Z,99746.53
2024-01-18T06:03:30.914Z,99741.34
2024-01-18T06:05:59.629Z,99749.16
2024-01-18T06:08:28.952Z,99751.78
2024-01-18T06:10:56.732Z,99752.13
2024-01-18T06:13:26.704Z,99751.28
2024-01-18T06:15:56.897Z,99743.56
2024-01-18T06:18:25.084Z,99754.75
2024-01-18T06:20:53.226Z,99760.13
2024-01-18T06:23:21.357Z,99761.19
2024-01-18T06:25:50.718Z,99763.69
2024-01-18T06:28:18.831Z,99760.53
2024-01-18T06:30:47.094Z,99762.00
2024-01-18T06:33:15.306Z,99765.72
2024-01-18T06:35:43.455Z,99769.09
2024-01-18T06:38:11.252Z,99783.31
2024-01-18T06:40:41.256Z,99786.56
2024-01-18T06:43:14.130Z,99796.16
2024-01-18T06:45:42.165Z,99786.16
2024-01-18T06:48:12.999Z,99796.69
2024-01-18T06:50:41.131Z,99807.88
2024-01-18T06:53:11.947Z,99810.63
2024-01-18T06:55:41.454Z,99813.34
2024-01-18T06:58:10.027Z,99814.41
2024-01-18T07:00:39.710Z,99800.91
2024-01-18T07:03:09.765Z,99816.28
2024-01-18T07:05:38.194Z,99828.72
2024-01-18T07:08:07.815Z,99822.59
2024-01-18T07:10:35.813Z,99834.22
2024-01-18T07:13:03.937Z,99827.25
2024-01-18T07:15:31.928Z,99831.75
2024-01-18T07:18:01.447Z,99833.47
2024-01-18T07:20:29.719Z,99851.91
2024-01-18T07:22:57.746Z,99842.72
2024-01-18T07:25:25.899Z,99866.78
2024-01-18T07:27:53.839Z,99869.00
2024-01-18T07:30:23.313Z,99871.03
2024-01-18T07:32:51.587Z,99865.22
2024-01-18T07:35:21.220Z,99856.19
2024-01-18T07:37:49.503Z,99862.06
2024-01-18T07:40:17.756Z,99857.44
2024-01-18T07:42:46.356Z,99870.31
2024-01-18T07:45:16.039Z,99866.91
2024-01-18T07:47:45.570Z,99867.75
2024-01-18T07:50:24.880Z,99874.81
2024-01-18T07:53:03.378Z,99879.91
2024-01-18T07:55:31.726Z,99876.59
2024-01-18T07:57:59.661Z,99883.56
2024-01-18T08:00:27.808Z,99896.75
2024-01-18T08:02:56.006Z,99920.75
2024-01-18T08:05:25.663Z,99925.19
2024-01-18T08:07:53.829Z,99929.00
2024-01-18T08:10:24.714Z,99916.13
2024-01-18T08:12:54.321Z,99917.59
2024-01-18T08:15:22.961Z,99922.75
2024-01-18T08:17:51.469Z,99924.03
2024-01-18T08:20:19.450Z,99928.16
2024-01-18T08:22:47.393Z,99920.13
2024-01-18T08:25:15.453Z,99928.88
2024-01-18T08:27:48.967Z,99923.84
2024-01-18T08:30:17.543Z,99936.78
2024-01-18T08:32:46.297Z,99947.47
2024-01-18T08:35:14.440Z,99946.22
2024-01-18T08:37:42.502Z,99948.84
2024-01-18T08:40:16.222Z,99950.63
2024-01-18T08:42:47.482Z,99960.13
2024-01-18T08:45:15.772Z,99952.44
2024-01-18T08:47:43.739Z,99959.41
2024-01-18T08:50:11.603Z,99962.75
2024-01-18T08:52:39.613Z,99963.84
2024-01-18T08:55:08.665Z,99966.97
2024-01-18T08:57:36.925Z,99971.00
2024-01-18T09:00:07.909Z,99979.22
2024-01-18T09:02:36.489Z,99973.75
2024-01-18T09:05:04.825Z,99987.88
2024-01-18T09:07:32.841Z,99970.00
2024-01-18T09:10:00.890Z,99993.28
2024-01-18T09:12:28.911Z,99995.06
2024-01-18T09:14:56.975Z,100003.25
2024-01-18T09:17:26.662Z,100014.13
2024-01-18T09:19:55.920Z,100018.63
2024-01-18T09:22:24.042Z,100013.97
2024-01-18T09:24:55.030Z,100029.03
2024-01-18T09:27:25.053Z,100031.25
2024-01-18T09:29:53.077Z,100037.25
2024-01-18T09:32:21.499Z,100042.34
2024-01-18T09:34:50.930Z,100046.03
2024-01-18T09:37:20.101Z,100044.47
2024-01-18T09:39:48.105Z,100053.84
2024-01-18T09:42:19.347Z,100054.69
2024-01-18T09:44:49.011Z,100061.38
2024-01-18T09:47:17.780Z,100070.13
2024-01-18T09:49:47.651Z,100071.66
2024-01-18T09:52:18.411Z,100077.19
2024-01-18T09:54:46.374Z,100095.81
2024-01-18T09:57:16.111Z,100105.94
2024-01-18T09:59:46.311Z,100103.31
2024-01-18T10:02:14.464Z,100116.09
2024-01-18T10:04:43.645Z,100127.53
2024-01-18T10:07:11.784Z,100119.69
2024-01-18T10:09:41.307Z,100136.91
2024-01-18T10:12:14.458Z,100138.41
2024-01-18T10:14:43.795Z,100133.00
2024-01-18T10:17:12.294Z,100140.81
2024-01-18T10:19:40.286Z,100143.22
2024-01-18T10:22:08.873Z,100153.69
2024-01-18T10:24:42.334Z,100163.22
2024-01-18T10:27:10.423Z,100163.94
2024-01-18T10:29:38.440Z,100160.59
2024-01-18T10:32:08.695Z,100167.69
2024-01-18T10:34:37.941Z,100170.84
2024-01-18T10:37:07.003Z,100170.66
2024-01-18T10:39:48.391Z,100171.69
2024-01-18T10:42:17.135Z,100179.03
2024-01-18T10:47:37.873Z,100189.06
2024-01-18T10:50:11.343Z,100194.63
2024-01-18T10:52:39.888Z,100199.94
2024-01-18T10:55:13.613Z,100206.19
2024-01-18T10:57:42.280Z,100200.13
2024-01-18T11:00:17.141Z,100216.88
2024-01-18T11:02:46.027Z,100220.75
2024-01-18T11:05:18.735Z,100228.84
2024-01-18T11:07:48.970Z,100227.66
2024-01-18T11:10:18.376Z,100230.91
2024-01-18T11:12:50.464Z,100231.50
2024-01-18T11:15:21.636Z,100229.41
2024-01-18T11:17:51.988Z,100236.78
2024-01-18T11:20:20.731Z,100229.84
2024-01-18T11:22:49.067Z,100246.31
2024-01-18T11:25:30.163Z,100247.88
2024-01-18T11:28:00.272Z,100262.03
2024-01-18T11:30:38.080Z,100243.75
2024-01-18T11:33:09.197Z,100251.75
2024-01-18T11:35:38.106Z,100256.13
2024-01-18T11:38:25.309Z,100261.41
2024-01-18T11:40:58.316Z,100255.56
2024-01-18T11:43:27.075Z,100264.22
2024-01-18T11:45:57.356Z,100278.25
2024-01-18T11:48:25.763Z,100273.69
2024-01-18T11:50:54.092Z,100279.47
2024-01-18T11:53:22.212Z,100290.06
2024-01-18T11:55:52.753Z,100289.13
2024-01-18T11:58:22.279Z,100288.03
2024-01-18T12:00:50.571Z,100289.03
2024-01-18T12:03:19.146Z,100291.34
2024-01-18T12:05:49.269Z,100298.09
2024-01-18T12:08:17.238Z,100292.06
2024-01-18T12:10:47.274Z,100300.53
2024-01-18T12:13:16.565Z,100304.03
2024-01-18T12:15:47.323Z,100313.44
2024-01-18T12:18:15.446Z,100306.09
2024-01-18T12:20:45.630Z,100310.78
2024-01-18T12:23:17.705Z,100308.00
2024-01-18T12:25:46.125Z,100314.28
2024-01-18T12:28:14.200Z,100316.63
2024-01-18T12:30:44.799Z,100327.59
2024-01-18T12:33:16.421Z,100320.13
2024-01-18T12:35:47.444Z,100329.78
2024-01-18T12:38:15.922Z,100329.44
2024-01-18T12:40:44.072Z,100343.28
2024-01-18T12:43:12.416Z,100347.50
2024-01-18T12:45:43.956Z,100335.78
2024-01-18T12:48:12.858Z,100348.41
2024-01-18T12:50:42.952Z,100350.28
2024-01-18T12:53:11.492Z,100361.16
2024-01-18T12:55:39.652Z,100346.19
2024-01-18T12:58:08.850Z,100351.50
2024-01-18T13:00:37.297Z,100372.97
2024-01-18T13:03:15.364Z,100369.81
2024-01-18T13:05:46.217Z,100375.63
2024-01-18T13:08:18.156Z,100370.22
2024-01-18T13:10:47.257Z,100386.03
2024-01-18T13:13:16.828Z,100383.38
2024-01-18T13:15:45.622Z,100387.94
2024-01-18T13:18:15.168Z,100392.66
2024-01-18T13:20:45.373Z,100399.78
2024-01-18T13:23:15.271Z,100407.53
2024-01-18T13:25:43.399Z,100413.44
2024-01-18T13:28:12.594Z,100417.91
2024-01-18T13:30:40.530Z,100418.66
2024-01-18T13:33:11.427Z,100418.06
2024-01-18T13:35:40.046Z,100421.19
2024-01-18T13:38:09.680Z,100438.38
2024-01-18T13:40:39.719Z,100437.63
2024-01-18T13:43:07.787Z,100431.88
2024-01-18T13:45:35.791Z,100449.63
2024-01-18T13:48:03.946Z,100451.53
2024-01-18T13:50:32.588Z,100467.47
2024-01-18T13:53:00.661Z,100471.47
2024-01-18T13:55:31.851Z,100474.72
2024-01-18T13:58:01.552Z,100484.75
2024-01-18T14:00:29.760Z,100485.13
2024-01-18T14:02:57.754Z,100481.63
2024-01-18T14:05:28.639Z,100491.16
2024-01-18T14:07:57.300Z,100496.69
2024-01-18T14:10:25.299Z,100495.94
2024-01-18T14:12:53.675Z,100504.66
2024-01-18T14:15:23.100Z,100507.06
2024-01-18T14:17:51.025Z,100510.69
2024-01-18T14:20:19.029Z,100521.56
2024-01-18T14:22:47.262Z,100524.31
2024-01-18T14:25:15.186Z,100535.06
2024-01-18T14:27:43.307Z,100542.31
2024-01-18T14:30:12.628Z,100535.75
2024-01-18T14:32:42.323Z,100548.56
2024-01-18T14:35:10.704Z,100557.59
2024-01-18T14:37:38.803Z,100561.47
2024-01-18T14:40:08.120Z,100569.53
2024-01-18T14:42:36.287Z,100562.47
2024-01-18T14:45:05.210Z,100578.16
2024-01-18T14:47:33.189Z,100571.28
2024-01-18T14:50:03.529Z,100579.56
2024-01-18T14:52:31.451Z,100588.00
2024-01-18T14:54:58.541Z,100598.09
2024-01-18T14:57:26.615Z,100604.59
2024-01-18T14:59:54.583Z,100612.16
2024-01-18T15:02:22.745Z,100604.75
2024-01-18T15:04:50.773Z,100614.09
2024-01-18T15:07:20.177Z,100620.34
2024-01-18T15:09:48.141Z,100621.75
2024-01-18T15:12:16.172Z,100634.06
2024-01-18T15:14:44.119Z,100633.63
2024-01-18T15:17:12.020Z,100647.34
2024-01-18T15:19:43.465Z,100653.72
2024-01-18T15:22:11.501Z,100658.47
2024-01-18T15:24:40.861Z,100666.75
2024-01-18T15:27:09.158Z,100677.56
2024-01-18T15:29:39.367Z,100685.00
2024-01-18T15:32:07.840Z,100689.66
2024-01-18T15:34:36.243Z,100699.50
2024-01-18T15:37:04.653Z,100692.94
2024-01-18T15:39:32.844Z,100711.59
2024-01-18T15:42:02.261Z,100701.28
2024-01-18T15:44:31.416Z,100692.38
2024-01-18T15:47:04.912Z,100717.63
2024-01-18T15:49:33.586Z,100730.53
2024-01-18T15:52:03.701Z,100729.88
2024-01-18T15:54:32.097Z,100729.13
2024-01-18T15:57:00.671Z,100740.03
2024-01-18T15:59:29.945Z,100754.25
2024-01-18T16:01:57.985Z,100754.34
2024-01-18T16:04:25.865Z,100738.94
2024-01-18T16:06:53.988Z,100762.03
2024-01-18T16:09:21.965Z,100766.78
2024-01-18T16:11:49.876Z,100770.56
2024-01-18T16:14:17.686Z,100775.16
2024-01-18T16:16:46.863Z,100772.84
2024-01-18T16:19:20.312Z,100786.22
2024-01-18T16:21:49.520Z,100790.94
2024-01-18T16:24:18.882Z,100790.47
2024-01-18T16:26:47.198Z,100804.69
2024-01-18T16:29:15.432Z,100810.16
2024-01-18T16:31:44.047Z,100808.44
2024-01-18T16:34:13.773Z,100812.34
2024-01-18T16:36:41.868Z,100820.38
2024-01-18T16:39:10.335Z,100830.22
2024-01-18T16:41:38.264Z,100836.56
2024-01-18T16:44:07.013Z,100842.06
2024-01-18T16:46:36.182Z,100848.47
2024-01-18T16:49:04.832Z,100846.97
2024-01-18T16:51:35.202Z,100845.63
2024-01-18T16:54:04.427Z,100853.34
2024-01-18T16:56:33.579Z,100859.72
2024-01-18T16:59:02.039Z,100864.31
2024-01-18T17:01:30.145Z,100867.81
2024-01-18T17:03:58.122Z,100870.66
2024-01-18T17:06:26.866Z,100869.13
2024-01-18T17:08:56.460Z,100880.47
2024-01-18T17:11:24.474Z,100871.91
2024-01-18T17:13:52.433Z,100880.78
2024-01-18T17:16:20.330Z,100885.13
2024-01-18T17:18:48.425Z,100894.94
2024-01-18T17:21:16.714Z,100893.22
2024-01-18T17:23:44.756Z,100895.03
2024-01-18T17:26:14.197Z,100897.75
2024-01-18T17:28:43.967Z,100900.69
2024-01-18T17:31:13.569Z,100906.91
2024-01-18T17:33:41.866Z,100908.91
2024-01-18T17:36:12.694Z,100919.63
2024-01-18T17:38:40.654Z,100919.72
2024-01-18T17:41:09.131Z,100920.69
2024-01-18T17:43:38.379Z,100917.34
2024-01-18T17:46:10.738Z,100926.34
2024-01-18T17:48:39.555Z,100922.34
2024-01-18T17:51:12.682Z,100936.16
2024-01-18T17:53:40.613Z,100941.78
2024-01-18T17:56:08.905Z,100934.72
2024-01-18T17:58:38.300Z,100941.03
2024-01-18T18:01:07.753Z,100950.50
2024-01-18T18:03:37.962Z,100941.88
2024-01-18T18:06:06.473Z,100948.09
2024-01-18T18:08:34.879Z,100953.56
2024-01-18T18:11:05.694Z,100925.50
2024-01-18T18:13:35.446Z,100958.75
2024-01-18T18:16:06.517Z,100961.69
2024-01-18T18:18:35.700Z,100965.44
2024-01-18T18:21:05.749Z,100968.94
2024-01-18T18:23:33.738Z,100954.28
2024-01-18T18:26:07.634Z,100965.94
2024-01-18T18:28:36.812Z,100971.06
2024-01-18T18:31:06.659Z,100978.31
2024-01-18T18:33:34.719Z,100968.59
2024-01-18T18:36:04.023Z,100970.66
2024-01-18T18:38:33.642Z,100979.44
2024-01-18T18:41:04.276Z,100975.06
2024-01-18T18:43:32.357Z,100979.69
2024-01-18T18:46:00.746Z,100984.97
2024-01-18T18:48:30.990Z,100985.06
2024-01-18T18:51:00.378Z,100991.28
2024-01-18T18:53:28.490Z,100996.66
2024-01-18T18:55:56.314Z,101005.50
2024-01-18T18:58:24.287Z,101008.34
2024-01-18T19:00:52.221Z,101014.69
2024-01-18T19:03:20.721Z,101014.69
2024-01-18T19:05:52.536Z,101014.97
2024-01-18T19:08:20.884Z,101026.25
2024-01-18T19:10:51.450Z,101022.63
2024-01-18T19:13:20.888Z,101032.19
2024-01-18T19:15:48.700Z,101032.38
2024-01-18T19:18:16.957Z,101025.72
2024-01-18T19:20:45.119Z,101039.53
2024-01-18T19:23:14.964Z,101037.16
2024-01-18T19:25:43.142Z,101053.66
2024-01-18T19:28:11.589Z,101057.25
2024-01-18T19:30:39.572Z,101051.03
2024-01-18T19:33:10.152Z,101058.03
2024-01-18T19:35:38.152Z,101072.31
2024-01-18T19:38:08.910Z,101074.97
2024-01-18T19:40:38.156Z,101070.00
2024-01-18T19:43:06.446Z,101078.66
2024-01-18T19:45:34.310Z,101078.72
2024-01-18T19:48:02.207Z,101085.91
2024-01-18T19:50:30.452Z,101082.34
2024-01-18T19:52:59.564Z,101086.38
2024-01-18T19:55:27.799Z,101097.69
2024-01-18T19:57:58.100Z,101092.50
2024-01-18T20:00:28.040Z,101102.22
2024-01-18T20:02:56.554Z,101105.06
2024-01-18T20:05:25.156Z,101115.16
2024-01-18T20:07:53.687Z,101121.81
2024-01-18T20:10:22.939Z,101124.72
2024-01-18T20:12:50.989Z,101128.22
2024-01-18T20:15:20.294Z,101128.28
2024-01-18T20:17:49.598Z,101118.63
2024-01-18T20:20:18.142Z,101135.03
2024-01-18T20:22:46.341Z,101123.13
2024-01-18T20:25:15.889Z,101138.88
2024-01-18T20:27:44.614Z,101130.75
2024-01-18T20:30:14.108Z,101131.72
2024-01-18T20:32:45.074Z,101137.03
2024-01-18T20:35:13.048Z,101135.91
2024-01-18T20:37:41.074Z,101111.66
2024-01-18T20:40:11.212Z,101140.06
2024-01-18T20:42:39.023Z,101136.84
2024-01-18T20:45:11.249Z,101145.91
2024-01-18T20:47:39.301Z,101149.81
2024-01-18T20:50:10.080Z,101153.66
2024-01-18T20:52:38.421Z,101166.03
2024-01-18T20:55:07.018Z,101166.91
2024-01-18T20:57:35.015Z,101170.63
2024-01-18T21:00:02.858Z,101175.25
2024-01-18T21:02:31.861Z,101172.16
2024-01-18T21:04:59.921Z,101187.16
2024-01-18T21:07:30.530Z,101186.50
2024-01-18T21:09:58.364Z,101181.53
2024-01-18T21:12:26.432Z,101194.66
2024-01-18T21:14:54.399Z,101194.84
2024-01-18T21:17:22.291Z,101188.94
2024-01-18T21:19:50.233Z,101195.16
2024-01-18T21:22:18.132Z,101203.03
2024-01-18T21:24:47.371Z,101190.88
2024-01-18T21:27:15.497Z,101201.38
2024-01-18T21:29:43.353Z,101193.59
2024-01-18T21:32:11.329Z,101209.38
2024-01-18T21:34:39.438Z,101203.34
2024-01-18T21:37:07.726Z,101212.34
2024-01-18T21:39:35.695Z,101219.22
2024-01-18T21:42:05.363Z,101217.50
2024-01-18T21:44:35.157Z,101229.69
2024-01-18T21:47:03.655Z,101230.78
2024-01-18T21:49:32.017Z,101227.44
2024-01-18T21:52:00.287Z,101232.84
2024-01-18T21:54:28.292Z,101226.69
2024-01-18T21:56:56.299Z,101231.13
2024-01-18T21:59:36.017Z,101232.97
2024-01-18T22:02:12.839Z,101233.03
2024-01-18T22:04:41.540Z,101225.38
2024-01-18T22:07:11.458Z,101233.75
2024-01-18T22:09:42.503Z,101231.97
2024-01-18T22:12:11.924Z,101235.38
2024-01-18T22:14:41.779Z,101241.69
2024-01-18T22:17:10.867Z,101237.41
2024-01-18T22:19:46.675Z,101242.56
2024-01-18T22:22:23.068Z,101242.69
2024-01-18T22:24:51.652Z,101246.19
2024-01-18T22:27:19.828Z,101248.91
2024-01-18T22:29:49.211Z,101253.44
2024-01-18T22:32:17.748Z,101251.47
2024-01-18T22:34:46.968Z,101246.97
2024-01-18T22:37:15.672Z,101251.47
2024-01-18T22:39:43.597Z,101254.97
2024-01-18T22:42:11.521Z,101259.41
2024-01-18T22:44:39.519Z,101259.66
2024-01-18T22:47:10.632Z,101267.97
2024-01-18T22:49:40.542Z,101272.16
2024-01-18T22:52:10.808Z,101272.06
2024-01-18T22:54:38.681Z,101267.06
2024-01-18T22:57:06.939Z,101262.28
2024-01-18T22:59:34.822Z,101258.72
2024-01-18T23:02:02.668Z,101251.13
2024-01-18T23:04:31.941Z,101264.00
2024-01-18T23:06:59.748Z,101269.75
2024-01-18T23:09:27.587Z,101268.75
2024-01-18T23:11:54.598Z,101270.13
2024-01-18T23:14:22.860Z,101267.31
2024-01-18T23:16:50.766Z,101277.03
2024-01-18T23:19:18.623Z,101280.13
2024-01-18T23:21:47.981Z,101270.91
2024-01-18T23:24:15.977Z,101279.47
2024-01-18T23:26:47.395Z,101278.75
2024-01-18T23:29:15.489Z,101290.28
2024-01-18T23:31:43.364Z,101296.53
2024-01-18T23:34:11.883Z,101282.59
2024-01-18T23:36:39.990Z,101288.50
2024-01-18T23:39:12.114Z,101286.81
2024-01-18T23:41:40.345Z,101283.91
2024-01-18T23:44:10.852Z,101287.97
2024-01-18T23:46:41.530Z,101301.25
2024-01-18T23:49:10.130Z,101300.03
2024-01-18T23:51:38.351Z,101313.63
2024-01-18T23:54:08.187Z,101304.22
2024-01-18T23:56:37.505Z,101313.19
2024-01-18T23:59:05.827Z,101303.22
